createdAt,value
2022-09-20T00:04:45.046Z,100957.88
2022-09-20T00:09:46.531Z,100965.50
2022-09-20T00:14:48.001Z,100969.00
2022-09-20T00:19:49.449Z,100969.91
2022-09-20T00:24:50.821Z,100966.63
2022-09-20T00:29:53.243Z,100961.59
2022-09-20T00:35:10.954Z,100964.19
2022-09-20T00:40:17.140Z,100960.84
2022-09-20T00:45:23.016Z,100963.41
2022-09-20T00:50:27.933Z,100967.66
2022-09-20T00:55:30.118Z,100966.88
2022-09-20T01:00:32.191Z,100956.78
2022-09-20T01:05:34.543Z,100961.09
2022-09-20T01:10:36.570Z,100956.88
2022-09-20T01:15:39.751Z,100957.75
2022-09-20T01:20:43.532Z,100966.31
2022-09-20T01:26:03.290Z,100966.28
2022-09-20T01:31:04.762Z,100966.22
2022-09-20T01:36:06.867Z,100960.28
2022-09-20T01:41:22.331Z,100967.84
2022-09-20T01:46:28.548Z,100967.72
2022-09-20T01:51:59.746Z,100960.75
2022-09-20T01:57:17.844Z,100960.66
2022-09-20T02:02:44.216Z,100962.44
2022-09-20T02:08:01.630Z,100952.50
2022-09-20T02:13:38.568Z,100966.94
2022-09-20T02:19:01.760Z,100966.94
2022-09-20T02:24:06.406Z,100966.75
2022-09-20T02:29:36.207Z,100958.91
2022-09-20T02:34:47.044Z,100953.72
2022-09-20T02:40:09.267Z,100955.34
2022-09-20T02:45:44.173Z,100954.47
2022-09-20T02:51:16.193Z,100956.88
2022-09-20T02:56:29.594Z,100958.47
2022-09-20T03:01:56.296Z,100964.16
2022-09-20T03:07:20.671Z,100969.00
2022-09-20T03:12:57.279Z,100972.13
2022-09-20T03:18:21.250Z,100972.69
2022-09-20T03:23:33.034Z,100974.19
2022-09-20T03:28:50.155Z,100987.66
2022-09-20T03:34:03.635Z,100979.00
2022-09-20T03:39:31.734Z,100982.53
2022-09-20T03:44:34.188Z,100982.47
2022-09-20T03:49:55.119Z,100986.56
2022-09-20T03:55:41.576Z,100991.72
2022-09-20T04:01:03.281Z,100993.38
2022-09-20T04:06:20.605Z,100999.19
2022-09-20T04:11:38.312Z,100994.00
2022-09-20T04:16:50.831Z,100996.50
2022-09-20T04:21:58.027Z,101000.84
2022-09-20T04:27:05.131Z,100996.69
2022-09-20T04:32:25.499Z,101001.06
2022-09-20T04:37:33.017Z,101010.50
2022-09-20T04:43:04.054Z,101001.31
2022-09-20T04:48:24.879Z,101007.38
2022-09-20T04:53:51.281Z,101012.72
2022-09-20T04:59:30.608Z,101016.31
2022-09-20T05:04:59.325Z,101027.47
2022-09-20T05:10:32.190Z,101021.59
2022-09-20T05:15:36.924Z,101030.06
2022-09-20T05:21:29.206Z,101045.28
2022-09-20T05:27:00.046Z,101052.72
2022-09-20T05:32:23.567Z,101052.50
2022-09-20T05:38:06.111Z,101049.41
2022-09-20T05:43:14.315Z,101049.25
2022-09-20T05:49:01.035Z,101052.25
2022-09-20T05:54:39.653Z,101037.28
2022-09-20T05:59:56.752Z,101034.22
2022-09-20T06:05:40.133Z,101033.59
2022-09-20T06:10:41.841Z,101047.06
2022-09-20T06:16:25.452Z,101036.38
2022-09-20T06:21:48.564Z,101035.72
2022-09-20T06:26:54.160Z,101040.63
2022-09-20T06:31:56.723Z,101035.97
2022-09-20T06:37:29.820Z,101043.72
2022-09-20T06:42:31.988Z,101035.91
2022-09-20T06:47:38.117Z,101041.34
2022-09-20T06:52:43.436Z,101049.78
2022-09-20T06:57:46.868Z,101042.59
2022-09-20T07:02:51.100Z,101052.56
2022-09-20T07:08:00.004Z,101044.66
2022-09-20T07:13:04.445Z,101050.06
2022-09-20T07:18:08.251Z,101046.31
2022-09-20T07:23:10.677Z,101053.91
2022-09-20T07:28:15.254Z,101048.09
2022-09-20T07:33:21.621Z,101054.00
2022-09-20T07:38:23.408Z,101057.44
2022-09-20T07:43:25.264Z,101056.50
2022-09-20T07:48:31.038Z,101059.00
2022-09-20T07:53:32.996Z,101062.88
2022-09-20T07:58:36.461Z,101062.34
2022-09-20T08:03:42.428Z,101065.44
2022-09-20T08:08:44.214Z,101061.88
2022-09-20T08:14:07.709Z,101061.00
2022-09-20T08:19:23.934Z,101061.94
2022-09-20T08:24:26.780Z,101057.00
2022-09-20T08:29:29.280Z,101061.06
2022-09-20T08:34:31.817Z,101066.91
2022-09-20T08:45:05.414Z,101051.06
2022-09-20T08:50:17.327Z,101045.06
2022-09-20T08:55:28.293Z,101056.00
2022-09-20T09:00:33.316Z,101046.28
2022-09-20T09:05:47.159Z,101052.41
2022-09-20T09:10:58.824Z,101052.09
2022-09-20T09:16:12.827Z,101044.72
2022-09-20T09:21:43.011Z,101042.09
2022-09-20T09:26:44.763Z,101042.78
2022-09-20T09:31:49.117Z,101042.03
2022-09-20T09:36:50.599Z,101042.47
2022-09-20T09:41:52.123Z,101034.13
2022-09-20T09:46:54.121Z,101031.84
2022-09-20T09:51:55.607Z,101038.34
2022-09-20T09:57:05.700Z,101031.78
2022-09-20T10:02:19.458Z,101030.00
2022-09-20T10:07:29.831Z,101030.09
2022-09-20T10:12:49.856Z,101030.22
2022-09-20T10:17:57.477Z,101031.06
2022-09-20T10:24:01.439Z,101034.41
2022-09-20T10:28:59.010Z,101021.41
2022-09-20T10:34:17.470Z,101012.94
2022-09-20T10:39:41.123Z,101026.81
2022-09-20T10:45:53.389Z,101020.06
2022-09-20T10:51:00.157Z,101026.91
2022-09-20T10:56:24.488Z,101027.66
2022-09-20T11:02:08.477Z,101020.13
2022-09-20T11:07:53.381Z,101024.31
2022-09-20T11:13:02.865Z,101032.63
2022-09-20T11:18:24.528Z,101034.38
2022-09-20T11:23:56.607Z,101028.69
2022-09-20T11:29:09.105Z,101019.91
2022-09-20T11:34:20.153Z,101020.03
2022-09-20T11:39:48.077Z,101025.25
2022-09-20T11:44:50.640Z,101019.78
2022-09-20T11:50:04.094Z,101019.81
2022-09-20T11:55:25.174Z,101023.34
2022-09-20T12:00:31.475Z,101017.03
2022-09-20T12:05:42.323Z,101015.28
2022-09-20T12:10:58.587Z,101012.66
2022-09-20T12:16:05.123Z,101012.25
2022-09-20T12:21:15.379Z,101013.94
2022-09-20T12:26:23.146Z,101004.72
2022-09-20T12:31:33.796Z,101010.81
2022-09-20T12:36:38.324Z,100999.81
2022-09-20T12:42:10.326Z,101009.84
2022-09-20T12:47:11.695Z,101005.38
2022-09-20T12:52:58.900Z,101010.19
2022-09-20T12:58:02.359Z,101007.91
2022-09-20T13:03:31.819Z,101004.34
2022-09-20T13:08:48.192Z,101007.28
2022-09-20T13:13:58.279Z,101005.19
2022-09-20T13:19:07.429Z,101003.34
2022-09-20T13:24:17.459Z,101011.16
2022-09-20T13:29:40.614Z,101009.34
2022-09-20T13:34:41.999Z,101014.00
2022-09-20T13:39:43.746Z,101013.38
2022-09-20T13:44:46.096Z,101000.97
2022-09-20T13:49:47.620Z,101008.69
2022-09-20T13:54:49.150Z,100997.38
2022-09-20T13:59:50.931Z,101002.78
2022-09-20T14:04:56.132Z,100995.00
2022-09-20T14:09:58.876Z,100999.38
2022-09-20T14:15:04.687Z,101001.13
2022-09-20T14:20:06.857Z,101000.38
2022-09-20T14:25:14.426Z,101004.13
2022-09-20T14:30:31.769Z,100997.81
2022-09-20T14:35:33.679Z,100995.38
2022-09-20T14:40:44.844Z,101004.97
2022-09-20T14:45:53.323Z,100994.72
2022-09-20T14:51:18.080Z,100995.00
2022-09-20T14:56:37.698Z,100987.28
2022-09-20T15:01:42.591Z,100994.94
2022-09-20T15:06:44.251Z,100994.50
2022-09-20T15:11:45.733Z,100990.81
2022-09-20T15:16:47.345Z,100995.44
2022-09-20T15:21:48.953Z,100993.69
2022-09-20T15:26:50.422Z,100999.81
2022-09-20T15:31:52.062Z,100996.41
2022-09-20T15:36:54.751Z,100983.63
2022-09-20T15:41:56.550Z,100993.34
2022-09-20T15:46:58.137Z,100988.16
2022-09-20T15:51:59.830Z,100994.72
2022-09-20T15:57:02.025Z,100993.41
2022-09-20T16:02:03.671Z,100993.56
2022-09-20T16:07:05.749Z,100996.75
2022-09-20T16:12:07.390Z,101001.84
2022-09-20T16:17:08.844Z,101006.66
2022-09-20T16:22:10.796Z,101016.59
2022-09-20T16:27:12.222Z,101029.06
2022-09-20T16:32:13.767Z,101020.56
2022-09-20T16:37:16.963Z,101029.44
2022-09-20T16:42:18.636Z,101033.53
2022-09-20T16:47:25.103Z,101033.47
2022-09-20T16:52:26.646Z,101041.03
2022-09-20T16:57:28.885Z,101050.03
2022-09-20T17:02:30.281Z,101048.75
2022-09-20T17:07:32.117Z,101055.97
2022-09-20T17:12:34.502Z,101056.19
2022-09-20T17:17:35.973Z,101063.59
2022-09-20T17:22:37.589Z,101056.81
2022-09-20T17:27:39.200Z,101055.91
2022-09-20T17:32:48.122Z,101063.06
2022-09-20T17:37:49.545Z,101069.75
2022-09-20T17:42:50.974Z,101078.03
2022-09-20T17:47:56.748Z,101073.28
2022-09-20T17:52:58.195Z,101083.75
2022-09-20T17:58:00.163Z,101083.00
2022-09-20T18:03:04.865Z,101086.50
2022-09-20T18:08:06.711Z,101094.28
2022-09-20T18:13:08.306Z,101094.38
2022-09-20T18:18:09.709Z,101101.56
2022-09-20T18:23:11.219Z,101102.03
2022-09-20T18:28:12.631Z,101102.50
2022-09-20T18:33:16.690Z,101116.53
2022-09-20T18:38:18.941Z,101122.63
2022-09-20T18:43:20.416Z,101122.19
2022-09-20T18:48:24.775Z,101128.41
2022-09-20T18:53:32.515Z,101128.41
2022-09-20T18:58:34.875Z,101133.69
2022-09-20T19:03:58.726Z,101145.03
2022-09-20T19:09:10.392Z,101143.47
2022-09-20T19:14:21.951Z,101146.78
2022-09-20T19:19:36.586Z,101144.19
2022-09-20T19:24:43.931Z,101165.38
2022-09-20T19:29:45.874Z,101167.09
2022-09-20T19:34:51.256Z,101170.63
2022-09-20T19:40:01.933Z,101181.50
2022-09-20T19:45:22.232Z,101186.47
2022-09-20T19:50:36.107Z,101183.44
2022-09-20T19:55:37.893Z,101188.56
2022-09-20T20:00:40.219Z,101175.81
2022-09-20T20:06:16.875Z,101181.22
2022-09-20T20:11:35.746Z,101186.38
2022-09-20T20:16:53.189Z,101189.09
2022-09-20T20:21:54.528Z,101191.03
2022-09-20T20:26:55.935Z,101185.56
2022-09-20T20:31:57.392Z,101200.31
2022-09-20T20:37:00.905Z,101199.69
2022-09-20T20:42:03.836Z,101199.88
2022-09-20T20:47:06.604Z,101211.84
2022-09-20T20:52:08.967Z,101210.31
2022-09-20T20:57:10.382Z,101215.63
2022-09-20T21:02:11.889Z,101213.38
2022-09-20T21:07:13.305Z,101222.06
2022-09-20T21:12:14.768Z,101226.47
2022-09-20T21:17:16.320Z,101229.16
2022-09-20T21:22:17.713Z,101226.75
2022-09-20T21:27:20.662Z,101229.41
2022-09-20T21:32:22.058Z,101233.84
2022-09-20T21:37:23.485Z,101228.03
2022-09-20T21:42:27.259Z,101230.69
2022-09-20T21:47:28.817Z,101240.19
2022-09-20T21:52:30.582Z,101237.19
2022-09-20T21:57:32.021Z,101244.28
2022-09-20T22:02:34.283Z,101235.88
2022-09-20T22:07:35.733Z,101233.34
2022-09-20T22:12:37.114Z,101235.06
2022-09-20T22:17:38.542Z,101230.88
2022-09-20T22:22:39.989Z,101226.72
2022-09-20T22:27:41.369Z,101220.00
2022-09-20T22:32:43.045Z,101221.81
2022-09-20T22:37:44.425Z,101223.63
2022-09-20T22:42:45.856Z,101222.00
2022-09-20T22:47:47.384Z,101229.75
2022-09-20T22:52:48.772Z,101228.16
2022-09-20T22:57:53.337Z,101235.00
2022-09-20T23:02:58.896Z,101235.97
2022-09-20T23:08:00.449Z,101236.06
2022-09-20T23:13:02.417Z,101241.25
2022-09-20T23:18:05.037Z,101239.66
2022-09-20T23:23:06.449Z,101239.69
2022-09-20T23:28:07.850Z,101244.00
2022-09-20T23:33:09.421Z,101241.59
2022-09-20T23:38:11.471Z,101245.06
2022-09-20T23:43:13.014Z,101244.31
2022-09-20T23:48:14.392Z,101246.94
2022-09-20T23:53:15.928Z,101247.88
2022-09-20T23:58:17.371Z,101246.19
